Time,TemperatureF,DewpointF,PressureIn,WindDirection,WindDirectionDegrees,WindSpeedMPH,WindSpeedGustMPH,Humidity,HourlyPrecipIn,Conditions,Clouds,dailyrainin,SoftwareType,DateUTC
2013-08-24 00:04:00,63.6,36.8,24.81,WNW,298,6.0,-999.0,37,-99.99,,,-99.99,dwt +perl,2013-08-24 07:04:00,
2013-08-24 00:09:00,63.7,36.2,24.82,WNW,298,11.0,-999.0,36,-99.99,,,-99.99,dwt +perl,2013-08-24 07:09:00,
2013-08-24 00:14:00,63.8,35.6,24.82,WNW,297,8.0,-999.0,35,-99.99,,,-99.99,dwt +perl,2013-08-24 07:14:00,
2013-08-24 00:19:00,63.8,35.6,24.81,WNW,287,8.0,-999.0,35,-99.99,,,-99.99,dwt +perl,2013-08-24 07:19:00,
2013-08-24 00:24:00,63.5,33.9,24.81,NW,304,11.0,-999.0,33,-99.99,,,-99.99,dwt +perl,2013-08-24 07:24:00,
2013-08-24 00:29:00,63.4,33.0,24.81,WNW,297,8.0,-999.0,32,-99.99,,,-99.99,dwt +perl,2013-08-24 07:29:00,
2013-08-24 00:34:00,63.6,32.4,24.81,NW,304,9.0,-999.0,31,-99.99,,,-99.99,dwt +perl,2013-08-24 07:34:00,
2013-08-24 00:39:00,63.7,32.5,24.81,WNW,296,7.0,-999.0,31,-99.99,,,-99.99,dwt +perl,2013-08-24 07:39:00,
2013-08-24 00:44:00,63.9,32.7,24.82,WNW,301,6.0,-999.0,31,-99.99,,,-99.99,dwt +perl,2013-08-24 07:44:00,
2013-08-24 00:49:00,64.1,32.8,24.81,WNW,283,8.0,-999.0,31,-99.99,,,-99.99,dwt +perl,2013-08-24 07:49:00,
2013-08-24 00:54:00,64.0,32.8,24.81,WNW,299,10.0,-999.0,31,-99.99,,,-99.99,dwt +perl,2013-08-24 07:54:00,
2013-08-24 00:59:00,64.0,32.8,24.82,WNW,296,10.0,-999.0,31,-99.99,,,-99.99,dwt +perl,2013-08-24 07:59:00,
2013-08-24 01:04:00,63.9,33.5,24.81,NW,309,7.0,-999.0,32,-99.99,,,-99.99,dwt +perl,2013-08-24 08:04:00,
2013-08-24 01:09:00,63.9,34.2,24.81,NW,304,6.0,-999.0,33,-99.99,,,-99.99,dwt +perl,2013-08-24 08:09:00,
2013-08-24 01:14:00,63.8,33.4,24.82,WNW,290,7.0,-999.0,32,-99.99,,,-99.99,dwt +perl,2013-08-24 08:14:00,
2013-08-24 01:19:00,63.4,33.8,24.82,WNW,295,8.0,-999.0,33,-99.99,,,-99.99,dwt +perl,2013-08-24 08:19:00,
2013-08-24 01:24:00,63.1,31.2,24.82,WNW,285,5.0,-999.0,30,-99.99,,,-99.99,dwt +perl,2013-08-24 08:24:00,
2013-08-24 01:29:00,62.4,31.4,24.82,NW,305,9.0,-999.0,31,-99.99,,,-99.99,dwt +perl,2013-08-24 08:29:00,
2013-08-24 01:34:00,62.2,31.2,24.81,WNW,298,8.0,-999.0,31,-99.99,,,-99.99,dwt +perl,2013-08-24 08:34:00,
2013-08-24 01:39:00,62.5,30.6,24.81,WNW,291,6.0,-999.0,30,-99.99,,,-99.99,dwt +perl,2013-08-24 08:39:00,
2013-08-24 01:44:00,62.6,33.1,24.81,WNW,289,8.0,-999.0,33,-99.99,,,-99.99,dwt +perl,2013-08-24 08:44:00,
2013-08-24 01:49:00,62.3,27.0,24.81,WNW,295,10.0,-999.0,26,-99.99,,,-99.99,dwt +perl,2013-08-24 08:49:00,
2013-08-24 01:54:00,61.7,25.5,24.81,WNW,300,6.0,-999.0,25,-99.99,,,-99.99,dwt +perl,2013-08-24 08:54:00,
2013-08-24 01:59:00,61.1,25.0,24.81,West,276,8.0,-999.0,25,-99.99,,,-99.99,dwt +perl,2013-08-24 08:59:00,
2013-08-24 02:04:00,61.4,24.3,24.81,WNW,293,12.0,-999.0,24,-99.99,,,-99.99,dwt +perl,2013-08-24 09:04:00,
2013-08-24 02:09:00,62.4,28.9,24.81,WNW,301,13.0,-999.0,28,-99.99,,,-99.99,dwt +perl,2013-08-24 09:09:00,
2013-08-24 02:14:00,62.6,28.1,24.81,WSW,237,7.0,-999.0,27,-99.99,,,-99.99,dwt +perl,2013-08-24 09:14:00,
2013-08-24 02:19:00,62.6,29.0,24.81,WNW,295,7.0,-999.0,28,-99.99,,,-99.99,dwt +perl,2013-08-24 09:19:00,
2013-08-24 02:24:00,62.5,24.2,24.82,WNW,284,10.0,-999.0,23,-99.99,,,-99.99,dwt +perl,2013-08-24 09:24:00,
2013-08-24 02:29:00,62.4,23.1,24.82,WNW,282,10.0,-999.0,22,-99.99,,,-99.99,dwt +perl,2013-08-24 09:29:00,
2013-08-24 02:34:00,62.2,22.9,24.81,West,273,13.0,-999.0,22,-99.99,,,-99.99,dwt +perl,2013-08-24 09:34:00,
2013-08-24 02:39:00,62.0,23.8,24.82,WNW,284,12.0,-999.0,23,-99.99,,,-99.99,dwt +perl,2013-08-24 09:39:00,
2013-08-24 02:44:00,61.9,23.7,24.82,West,274,10.0,-999.0,23,-99.99,,,-99.99,dwt +perl,2013-08-24 09:44:00,
2013-08-24 02:49:00,61.7,24.5,24.82,West,273,9.0,-999.0,24,-99.99,,,-99.99,dwt +perl,2013-08-24 09:49:00,
2013-08-24 02:54:00,61.8,26.5,24.82,WNW,290,8.0,-999.0,26,-99.99,,,-99.99,dwt +perl,2013-08-24 09:54:00,
2013-08-24 02:59:00,62.0,25.8,24.82,WNW,293,8.0,-999.0,25,-99.99,,,-99.99,dwt +perl,2013-08-24 09:59:00,
2013-08-24 03:04:00,62.0,25.8,24.82,WNW,301,9.0,-999.0,25,-99.99,,,-99.99,dwt +perl,2013-08-24 10:04:00,
2013-08-24 03:09:00,61.5,23.4,24.82,WNW,283,9.0,-999.0,23,-99.99,,,-99.99,dwt +perl,2013-08-24 10:09:00,
2013-08-24 03:14:00,61.2,21.0,24.82,WNW,290,5.0,-999.0,21,-99.99,,,-99.99,dwt +perl,2013-08-24 10:14:00,
2013-08-24 03:19:00,61.0,19.6,24.82,WNW,285,11.0,-999.0,20,-99.99,,,-99.99,dwt +perl,2013-08-24 10:19:00,
2013-08-24 03:24:00,61.1,18.5,24.82,WNW,294,10.0,-999.0,19,-99.99,,,-99.99,dwt +perl,2013-08-24 10:24:00,
2013-08-24 03:29:00,61.0,18.5,24.82,WNW,289,10.0,-999.0,19,-99.99,,,-99.99,dwt +perl,2013-08-24 10:29:00,
2013-08-24 03:34:00,60.7,19.4,24.82,West,280,9.0,-999.0,20,-99.99,,,-99.99,dwt +perl,2013-08-24 10:34:00,
2013-08-24 03:39:00,60.5,19.2,24.82,West,275,8.0,-999.0,20,-99.99,,,-99.99,dwt +perl,2013-08-24 10:39:00,
2013-08-24 03:44:00,60.7,19.4,24.82,West,281,8.0,-999.0,20,-99.99,,,-99.99,dwt +perl,2013-08-24 10:44:00,
2013-08-24 03:49:00,60.8,19.5,24.82,West,275,10.0,-999.0,20,-99.99,,,-99.99,dwt +perl,2013-08-24 10:49:00,
2013-08-24 03:54:00,61.1,18.5,24.82,WNW,292,13.0,-999.0,19,-99.99,,,-99.99,dwt +perl,2013-08-24 10:54:00,
2013-08-24 03:59:00,61.4,24.3,24.82,West,277,11.0,-999.0,24,-99.99,,,-99.99,dwt +perl,2013-08-24 10:59:00,
2013-08-24 04:04:00,61.4,28.0,24.82,WNW,287,10.0,-999.0,28,-99.99,,,-99.99,dwt +perl,2013-08-24 11:04:00,
2013-08-24 04:09:00,61.1,30.2,24.82,West,278,7.0,-999.0,31,-99.99,,,-99.99,dwt +perl,2013-08-24 11:09:00,
2013-08-24 04:14:00,60.7,33.6,24.82,WNW,289,7.0,-999.0,36,-99.99,,,-99.99,dwt +perl,2013-08-24 11:14:00,
2013-08-24 04:19:00,60.6,36.1,24.82,West,275,8.0,-999.0,40,-99.99,,,-99.99,dwt +perl,2013-08-24 11:19:00,
2013-08-24 04:24:00,60.3,36.5,24.82,NW,305,8.0,-999.0,41,-99.99,,,-99.99,dwt +perl,2013-08-24 11:24:00,
2013-08-24 04:29:00,60.1,36.9,24.82,WNW,283,11.0,-999.0,42,-99.99,,,-99.99,dwt +perl,2013-08-24 11:29:00,
2013-08-24 04:34:00,60.3,35.9,24.82,NW,318,13.0,-999.0,40,-99.99,,,-99.99,dwt +perl,2013-08-24 11:34:00,
2013-08-24 04:39:00,60.5,35.4,24.82,WNW,283,9.0,-999.0,39,-99.99,,,-99.99,dwt +perl,2013-08-24 11:39:00,
2013-08-24 04:44:00,60.5,34.8,24.82,NW,307,10.0,-999.0,38,-99.99,,,-99.99,dwt +perl,2013-08-24 11:44:00,
2013-08-24 04:49:00,60.2,34.5,24.81,WNW,285,11.0,-999.0,38,-99.99,,,-99.99,dwt +perl,2013-08-24 11:49:00,
2013-08-24 04:54:00,60.0,34.3,24.81,WNW,297,9.0,-999.0,38,-99.99,,,-99.99,dwt +perl,2013-08-24 11:54:00,
2013-08-24 04:59:00,59.9,34.9,24.81,WNW,289,8.0,-999.0,39,-99.99,,,-99.99,dwt +perl,2013-08-24 11:59:00,
2013-08-24 05:04:00,59.8,35.4,24.81,WNW,297,11.0,-999.0,40,-99.99,,,-99.99,dwt +perl,2013-08-24 12:04:00,
2013-08-24 05:09:00,60.0,36.2,24.81,WNW,284,9.0,-999.0,41,-99.99,,,-99.99,dwt +perl,2013-08-24 12:09:00,
2013-08-24 05:14:00,60.0,36.8,24.81,WNW,284,6.0,-999.0,42,-99.99,,,-99.99,dwt +perl,2013-08-24 12:14:00,
2013-08-24 05:19:00,60.0,37.4,24.81,NW,310,10.0,-999.0,43,-99.99,,,-99.99,dwt +perl,2013-08-24 12:19:00,
2013-08-24 05:24:00,59.8,37.8,24.81,WNW,295,6.0,-999.0,44,-99.99,,,-99.99,dwt +perl,2013-08-24 12:24:00,
2013-08-24 05:29:00,60.0,37.4,24.81,WNW,289,7.0,-999.0,43,-99.99,,,-99.99,dwt +perl,2013-08-24 12:29:00,
2013-08-24 05:34:00,60.4,37.8,24.81,WNW,302,13.0,-999.0,43,-99.99,,,-99.99,dwt +perl,2013-08-24 12:34:00,
2013-08-24 05:39:00,60.8,37.0,24.81,WNW,301,9.0,-999.0,41,-99.99,,,-99.99,dwt +perl,2013-08-24 12:39:00,
2013-08-24 05:44:00,61.2,37.9,24.81,WNW,294,5.0,-999.0,42,-99.99,,,-99.99,dwt +perl,2013-08-24 12:44:00,
2013-08-24 05:49:00,61.1,38.4,24.82,NW,305,9.0,-999.0,43,-99.99,,,-99.99,dwt +perl,2013-08-24 12:49:00,
2013-08-24 05:54:00,61.1,38.4,24.82,NW,305,8.0,-999.0,43,-99.99,,,-99.99,dwt +perl,2013-08-24 12:54:00,
2013-08-24 05:59:00,61.1,39.0,24.82,NW,309,10.0,-999.0,44,-99.99,,,-99.99,dwt +perl,2013-08-24 12:59:00,
2013-08-24 06:04:00,61.1,39.0,24.82,NW,304,10.0,-999.0,44,-99.99,,,-99.99,dwt +perl,2013-08-24 13:04:00,
2013-08-24 06:09:00,61.1,38.4,24.82,NW,315,9.0,-999.0,43,-99.99,,,-99.99,dwt +perl,2013-08-24 13:09:00,
2013-08-24 06:14:00,61.1,38.4,24.82,NW,318,7.0,-999.0,43,-99.99,,,-99.99,dwt +perl,2013-08-24 13:14:00,
2013-08-24 06:19:00,61.2,38.5,24.82,NW,309,6.0,-999.0,43,-99.99,,,-99.99,dwt +perl,2013-08-24 13:19:00,
2013-08-24 06:24:00,61.2,39.1,24.82,NW,316,9.0,-999.0,44,-99.99,,,-99.99,dwt +perl,2013-08-24 13:24:00,
2013-08-24 06:29:00,61.1,39.6,24.82,NW,320,8.0,-999.0,45,-99.99,,,-99.99,dwt +perl,2013-08-24 13:29:00,
2013-08-24 06:34:00,61.3,39.8,24.82,NNW,330,6.0,-999.0,45,-99.99,,,-99.99,dwt +perl,2013-08-24 13:34:00,
2013-08-24 06:39:00,61.4,39.9,24.82,NNW,329,9.0,-999.0,45,-99.99,,,-99.99,dwt +perl,2013-08-24 13:39:00,
2013-08-24 06:44:00,61.6,40.0,24.82,NW,316,8.0,-999.0,45,-99.99,,,-99.99,dwt +perl,2013-08-24 13:44:00,
2013-08-24 06:49:00,61.5,39.4,24.82,NW,312,7.0,-999.0,44,-99.99,,,-99.99,dwt +perl,2013-08-24 13:49:00,
2013-08-24 06:54:00,61.7,39.6,24.82,NNW,333,6.0,-999.0,44,-99.99,,,-99.99,dwt +perl,2013-08-24 13:54:00,
2013-08-24 06:59:00,61.8,39.7,24.82,NW,315,11.0,-999.0,44,-99.99,,,-99.99,dwt +perl,2013-08-24 13:59:00,
2013-08-24 07:04:00,61.9,39.7,24.82,NW,316,10.0,-999.0,44,-99.99,,,-99.99,dwt +perl,2013-08-24 14:04:00,
2013-08-24 07:09:00,61.9,40.3,24.82,NNW,327,7.0,-999.0,45,-99.99,,,-99.99,dwt +perl,2013-08-24 14:09:00,
2013-08-24 07:14:00,62.0,40.4,24.82,NW,322,10.0,-999.0,45,-99.99,,,-99.99,dwt +perl,2013-08-24 14:14:00,
2013-08-24 07:19:00,62.1,41.1,24.82,NW,313,6.0,-999.0,46,-99.99,,,-99.99,dwt +perl,2013-08-24 14:19:00,
2013-08-24 07:24:00,62.1,41.1,24.82,NW,309,9.0,-999.0,46,-99.99,,,-99.99,dwt +perl,2013-08-24 14:24:00,
2013-08-24 07:29:00,62.0,41.0,24.82,NW,310,5.0,-999.0,46,-99.99,,,-99.99,dwt +perl,2013-08-24 14:29:00,
2013-08-24 07:34:00,62.0,41.0,24.82,NW,312,7.0,-999.0,46,-99.99,,,-99.99,dwt +perl,2013-08-24 14:34:00,
2013-08-24 07:39:00,62.0,41.0,24.82,WNW,297,6.0,-999.0,46,-99.99,,,-99.99,dwt +perl,2013-08-24 14:39:00,
2013-08-24 07:44:00,62.0,41.0,24.82,WNW,291,5.0,-999.0,46,-99.99,,,-99.99,dwt +perl,2013-08-24 14:44:00,
2013-08-24 07:49:00,61.8,40.8,24.82,WNW,303,8.0,-999.0,46,-99.99,,,-99.99,dwt +perl,2013-08-24 14:49:00,
2013-08-24 07:54:00,61.5,41.1,24.82,WNW,296,10.0,-999.0,47,-99.99,,,-99.99,dwt +perl,2013-08-24 14:54:00,
2013-08-24 07:59:00,61.2,40.8,24.82,WNW,296,7.0,-999.0,47,-99.99,,,-99.99,dwt +perl,2013-08-24 14:59:00,
2013-08-24 08:04:00,61.0,40.6,24.82,West,278,7.0,-999.0,47,-99.99,,,-99.99,dwt +perl,2013-08-24 15:04:00,
2013-08-24 08:09:00,60.7,40.3,24.82,WNW,293,8.0,-999.0,47,-99.99,,,-99.99,dwt +perl,2013-08-24 15:09:00,
2013-08-24 08:14:00,60.8,41.0,24.82,West,277,5.0,-999.0,48,-99.99,,,-99.99,dwt +perl,2013-08-24 15:14:00,
2013-08-24 08:19:00,61.1,40.7,24.83,WNW,296,5.0,-999.0,47,-99.99,,,-99.99,dwt +perl,2013-08-24 15:19:00,
2013-08-24 08:24:00,61.2,40.2,24.83,WNW,299,8.0,-999.0,46,-99.99,,,-99.99,dwt +perl,2013-08-24 15:24:00,
2013-08-24 08:29:00,61.4,41.0,24.83,WNW,301,5.0,-999.0,47,-99.99,,,-99.99,dwt +perl,2013-08-24 15:29:00,
2013-08-24 08:34:00,61.7,40.7,24.83,NW,315,1.0,-999.0,46,-99.99,,,-99.99,dwt +perl,2013-08-24 15:34:00,
2013-08-24 08:39:00,62.1,41.1,24.83,WNW,299,3.0,-999.0,46,-99.99,,,-99.99,dwt +perl,2013-08-24 15:39:00,
2013-08-24 08:44:00,62.3,41.2,24.83,NNE,13,0.0,-999.0,46,-99.99,,,-99.99,dwt +perl,2013-08-24 15:44:00,
2013-08-24 08:49:00,62.7,41.0,24.84,NW,319,2.0,-999.0,45,-99.99,,,-99.99,dwt +perl,2013-08-24 15:49:00,
2013-08-24 08:54:00,62.9,41.2,24.84,NW,318,3.0,-999.0,45,-99.99,,,-99.99,dwt +perl,2013-08-24 15:54:00,
2013-08-24 08:59:00,62.9,42.3,24.84,NNW,331,1.0,-999.0,47,-99.99,,,-99.99,dwt +perl,2013-08-24 15:59:00,
2013-08-24 09:04:00,63.3,42.2,24.84,NW,322,1.0,-999.0,46,-99.99,,,-99.99,dwt +perl,2013-08-24 16:04:00,
2013-08-24 09:09:00,62.6,41.5,24.84,WNW,291,3.0,-999.0,46,-99.99,,,-99.99,dwt +perl,2013-08-24 16:09:00,
2013-08-24 09:14:00,61.3,42.0,24.84,WSW,241,4.0,-999.0,49,-99.99,,,-99.99,dwt +perl,2013-08-24 16:14:00,
2013-08-24 09:19:00,60.8,41.5,24.84,WSW,237,6.0,-999.0,49,-99.99,,,-99.99,dwt +perl,2013-08-24 16:19:00,
2013-08-24 09:24:00,60.5,42.3,24.84,SW,235,7.0,-999.0,51,-99.99,,,-99.99,dwt +perl,2013-08-24 16:24:00,
2013-08-24 09:29:00,60.6,42.4,24.84,West,262,4.0,-999.0,51,-99.99,,,-99.99,dwt +perl,2013-08-24 16:29:00,
2013-08-24 09:34:00,60.7,42.5,24.84,West,262,3.0,-999.0,51,-99.99,,,-99.99,dwt +perl,2013-08-24 16:34:00,
2013-08-24 09:39:00,60.9,42.6,24.85,West,261,4.0,-999.0,51,-99.99,,,-99.99,dwt +perl,2013-08-24 16:39:00,
2013-08-24 09:44:00,61.3,43.0,24.85,West,261,3.0,-999.0,51,-99.99,,,-99.99,dwt +perl,2013-08-24 16:44:00,
2013-08-24 09:49:00,61.9,43.0,24.85,West,261,5.0,-999.0,50,-99.99,,,-99.99,dwt +perl,2013-08-24 16:49:00,
2013-08-24 09:54:00,62.0,43.1,24.85,West,259,5.0,-999.0,50,-99.99,,,-99.99,dwt +perl,2013-08-24 16:54:00,
2013-08-24 09:59:00,62.4,43.0,24.85,WSW,257,3.0,-999.0,49,-99.99,,,-99.99,dwt +perl,2013-08-24 16:59:00,
2013-08-24 10:04:00,62.8,42.3,24.85,WSW,256,4.0,-999.0,47,-99.99,,,-99.99,dwt +perl,2013-08-24 17:04:00,
2013-08-24 10:09:00,63.4,42.2,24.85,WSW,257,3.0,-999.0,46,-99.99,,,-99.99,dwt +perl,2013-08-24 17:09:00,
2013-08-24 10:14:00,63.9,43.8,24.85,WSW,256,3.0,-999.0,48,-99.99,,,-99.99,dwt +perl,2013-08-24 17:14:00,
2013-08-24 10:19:00,64.7,43.4,24.85,WSW,256,2.0,-999.0,46,-99.99,,,-99.99,dwt +perl,2013-08-24 17:19:00,
2013-08-24 10:24:00,65.2,43.9,24.86,WSW,256,0.0,-999.0,46,-99.99,,,-99.99,dwt +perl,2013-08-24 17:24:00,
2013-08-24 10:29:00,65.5,43.0,24.85,WSW,256,1.0,-999.0,44,-99.99,,,-99.99,dwt +perl,2013-08-24 17:29:00,
2013-08-24 10:34:00,65.9,43.4,24.86,WSW,256,1.0,-999.0,44,-99.99,,,-99.99,dwt +perl,2013-08-24 17:34:00,
2013-08-24 10:39:00,65.9,44.0,24.86,WSW,256,6.0,-999.0,45,-99.99,,,-99.99,dwt +perl,2013-08-24 17:39:00,
2013-08-24 10:44:00,65.5,43.0,24.86,WSW,242,3.0,-999.0,44,-99.99,,,-99.99,dwt +perl,2013-08-24 17:44:00,
2013-08-24 10:49:00,65.8,43.9,24.86,WSW,242,3.0,-999.0,45,-99.99,,,-99.99,dwt +perl,2013-08-24 17:49:00,
2013-08-24 10:54:00,66.6,42.8,24.86,WSW,242,0.0,-999.0,42,-99.99,,,-99.99,dwt +perl,2013-08-24 17:54:00,
2013-08-24 10:59:00,67.0,44.4,24.86,WSW,242,4.0,-999.0,44,-99.99,,,-99.99,dwt +perl,2013-08-24 17:59:00,
2013-08-24 11:04:00,67.2,43.3,24.86,WSW,242,4.0,-999.0,42,-99.99,,,-99.99,dwt +perl,2013-08-24 18:04:00,
2013-08-24 11:09:00,67.7,42.5,24.86,WSW,242,0.0,-999.0,40,-99.99,,,-99.99,dwt +perl,2013-08-24 18:09:00,
2013-08-24 11:14:00,68.0,44.0,24.86,WSW,239,4.0,-999.0,42,-99.99,,,-99.99,dwt +perl,2013-08-24 18:14:00,
2013-08-24 11:19:00,68.1,44.8,24.86,SW,233,9.0,-999.0,43,-99.99,,,-99.99,dwt +perl,2013-08-24 18:19:00,
2013-08-24 11:24:00,67.2,43.9,24.86,SW,233,6.0,-999.0,43,-99.99,,,-99.99,dwt +perl,2013-08-24 18:24:00,
2013-08-24 11:29:00,66.3,43.7,24.86,SW,234,1.0,-999.0,44,-99.99,,,-99.99,dwt +perl,2013-08-24 18:29:00,
2013-08-24 11:34:00,67.2,43.9,24.86,SW,232,6.0,-999.0,43,-99.99,,,-99.99,dwt +perl,2013-08-24 18:34:00,
2013-08-24 11:39:00,66.5,42.7,24.86,WNW,284,4.0,-999.0,42,-99.99,,,-99.99,dwt +perl,2013-08-24 18:39:00,
2013-08-24 11:44:00,66.1,42.9,24.86,SW,226,8.0,-999.0,43,-99.99,,,-99.99,dwt +perl,2013-08-24 18:44:00,
2013-08-24 11:49:00,66.0,43.5,24.86,SSW,195,9.0,-999.0,44,-99.99,,,-99.99,dwt +perl,2013-08-24 18:49:00,
2013-08-24 11:54:00,66.5,44.5,24.86,SW,224,3.0,-999.0,45,-99.99,,,-99.99,dwt +perl,2013-08-24 18:54:00,
2013-08-24 11:59:00,66.5,43.9,24.86,West,273,8.0,-999.0,44,-99.99,,,-99.99,dwt +perl,2013-08-24 18:59:00,
2013-08-24 12:04:00,66.5,44.5,24.86,WSW,252,6.0,-999.0,45,-99.99,,,-99.99,dwt +perl,2013-08-24 19:04:00,
2013-08-24 12:09:00,66.2,44.2,24.86,SSW,206,7.0,-999.0,45,-99.99,,,-99.99,dwt +perl,2013-08-24 19:09:00,
2013-08-24 12:14:00,66.7,44.7,24.86,WSW,251,6.0,-999.0,45,-99.99,,,-99.99,dwt +perl,2013-08-24 19:14:00,
2013-08-24 12:19:00,66.2,43.6,24.86,SSW,208,4.0,-999.0,44,-99.99,,,-99.99,dwt +perl,2013-08-24 19:19:00,
2013-08-24 12:24:00,66.7,45.2,24.86,WSW,254,7.0,-999.0,46,-99.99,,,-99.99,dwt +perl,2013-08-24 19:24:00,
2013-08-24 12:29:00,66.7,44.7,24.86,West,272,5.0,-999.0,45,-99.99,,,-99.99,dwt +perl,2013-08-24 19:29:00,
2013-08-24 12:34:00,66.5,45.1,24.86,WSW,244,7.0,-999.0,46,-99.99,,,-99.99,dwt +perl,2013-08-24 19:34:00,
2013-08-24 12:39:00,66.2,44.8,24.86,West,266,5.0,-999.0,46,-99.99,,,-99.99,dwt +perl,2013-08-24 19:39:00,
2013-08-24 12:44:00,66.5,45.1,24.86,SSW,212,4.0,-999.0,46,-99.99,,,-99.99,dwt +perl,2013-08-24 19:44:00,
2013-08-24 12:49:00,67.6,44.9,24.86,SW,222,10.0,-999.0,44,-99.99,,,-99.99,dwt +perl,2013-08-24 19:49:00,
2013-08-24 12:54:00,67.2,44.5,24.86,WSW,251,6.0,-999.0,44,-99.99,,,-99.99,dwt +perl,2013-08-24 19:54:00,
2013-08-24 12:59:00,67.7,44.4,24.86,SW,214,8.0,-999.0,43,-99.99,,,-99.99,dwt +perl,2013-08-24 19:59:00,
2013-08-24 13:04:00,67.6,44.9,24.85,SW,222,8.0,-999.0,44,-99.99,,,-99.99,dwt +perl,2013-08-24 20:04:00,
2013-08-24 13:09:00,68.1,45.3,24.86,West,281,7.0,-999.0,44,-99.99,,,-99.99,dwt +perl,2013-08-24 20:09:00,
2013-08-24 13:14:00,67.9,45.8,24.86,WSW,239,3.0,-999.0,45,-99.99,,,-99.99,dwt +perl,2013-08-24 20:14:00,
2013-08-24 13:19:00,68.0,45.8,24.85,WSW,240,5.0,-999.0,45,-99.99,,,-99.99,dwt +perl,2013-08-24 20:19:00,
2013-08-24 13:24:00,68.6,45.8,24.85,WSW,252,0.0,-999.0,44,-99.99,,,-99.99,dwt +perl,2013-08-24 20:24:00,
2013-08-24 13:29:00,69.4,46.5,24.85,WSW,245,1.0,-999.0,44,-99.99,,,-99.99,dwt +perl,2013-08-24 20:29:00,
2013-08-24 13:34:00,70.1,45.9,24.85,SSW,212,7.0,-999.0,42,-99.99,,,-99.99,dwt +perl,2013-08-24 20:34:00,
2013-08-24 13:39:00,69.8,46.9,24.85,SW,218,7.0,-999.0,44,-99.99,,,-99.99,dwt +perl,2013-08-24 20:39:00,
2013-08-24 13:44:00,69.8,46.3,24.85,South,185,10.0,-999.0,43,-99.99,,,-99.99,dwt +perl,2013-08-24 20:44:00,
2013-08-24 13:49:00,69.5,46.6,24.85,WNW,282,6.0,-999.0,44,-99.99,,,-99.99,dwt +perl,2013-08-24 20:49:00,
2013-08-24 13:54:00,69.0,46.8,24.85,West,270,7.0,-999.0,45,-99.99,,,-99.99,dwt +perl,2013-08-24 20:54:00,
2013-08-24 13:59:00,68.8,46.6,24.85,West,275,6.0,-999.0,45,-99.99,,,-99.99,dwt +perl,2013-08-24 20:59:00,
2013-08-24 14:04:00,69.2,46.9,24.85,WSW,243,3.0,-999.0,45,-99.99,,,-99.99,dwt +perl,2013-08-24 21:04:00,
2013-08-24 14:09:00,69.3,47.0,24.85,SW,235,4.0,-999.0,45,-99.99,,,-99.99,dwt +perl,2013-08-24 21:09:00,
2013-08-24 14:14:00,69.9,47.0,24.85,West,270,2.0,-999.0,44,-99.99,,,-99.99,dwt +perl,2013-08-24 21:14:00,
2013-08-24 14:19:00,69.6,46.7,24.85,WSW,251,5.0,-999.0,44,-99.99,,,-99.99,dwt +perl,2013-08-24 21:19:00,
2013-08-24 14:24:00,70.1,47.8,24.85,WSW,256,3.0,-999.0,45,-99.99,,,-99.99,dwt +perl,2013-08-24 21:24:00,
2013-08-24 14:29:00,70.0,47.1,24.85,SW,223,6.0,-999.0,44,-99.99,,,-99.99,dwt +perl,2013-08-24 21:29:00,
2013-08-24 14:34:00,69.8,46.9,24.85,WNW,286,6.0,-999.0,44,-99.99,,,-99.99,dwt +perl,2013-08-24 21:34:00,
2013-08-24 14:39:00,68.6,47.0,24.85,WSW,242,5.0,-999.0,46,-99.99,,,-99.99,dwt +perl,2013-08-24 21:39:00,
2013-08-24 14:44:00,68.5,47.5,24.85,West,265,4.0,-999.0,47,-99.99,,,-99.99,dwt +perl,2013-08-24 21:44:00,
2013-08-24 14:49:00,69.4,47.7,24.85,WNW,283,8.0,-999.0,46,-99.99,,,-99.99,dwt +perl,2013-08-24 21:49:00,
2013-08-24 14:54:00,69.6,47.3,24.84,SW,218,8.0,-999.0,45,-99.99,,,-99.99,dwt +perl,2013-08-24 21:54:00,
2013-08-24 14:59:00,69.9,47.0,24.84,West,275,8.0,-999.0,44,-99.99,,,-99.99,dwt +perl,2013-08-24 21:59:00,
2013-08-24 15:04:00,70.3,47.3,24.84,WSW,256,4.0,-999.0,44,-99.99,,,-99.99,dwt +perl,2013-08-24 22:04:00,
2013-08-24 15:09:00,69.5,47.2,24.84,SSW,210,11.0,-999.0,45,-99.99,,,-99.99,dwt +perl,2013-08-24 22:09:00,
2013-08-24 15:14:00,69.3,46.4,24.84,West,274,2.0,-999.0,44,-99.99,,,-99.99,dwt +perl,2013-08-24 22:14:00,
2013-08-24 15:19:00,69.5,47.2,24.84,SW,224,9.0,-999.0,45,-99.99,,,-99.99,dwt +perl,2013-08-24 22:19:00,
2013-08-24 15:24:00,69.5,47.2,24.84,WSW,257,4.0,-999.0,45,-99.99,,,-99.99,dwt +perl,2013-08-24 22:24:00,
2013-08-24 15:29:00,69.4,47.7,24.84,West,268,5.0,-999.0,46,-99.99,,,-99.99,dwt +perl,2013-08-24 22:29:00,
2013-08-24 15:34:00,68.4,47.9,24.84,WSW,251,6.0,-999.0,48,-99.99,,,-99.99,dwt +perl,2013-08-24 22:34:00,
2013-08-24 15:39:00,67.4,47.0,24.84,WNW,285,5.0,-999.0,48,-99.99,,,-99.99,dwt +perl,2013-08-24 22:39:00,
2013-08-24 15:44:00,67.6,47.8,24.84,West,262,8.0,-999.0,49,-99.99,,,-99.99,dwt +perl,2013-08-24 22:44:00,
2013-08-24 15:49:00,67.7,47.8,24.84,WNW,284,7.0,-999.0,49,-99.99,,,-99.99,dwt +perl,2013-08-24 22:49:00,
2013-08-24 15:54:00,67.8,48.5,24.84,SSW,208,14.0,-999.0,50,-99.99,,,-99.99,dwt +perl,2013-08-24 22:54:00,
2013-08-24 15:59:00,67.0,47.7,24.84,West,262,5.0,-999.0,50,-99.99,,,-99.99,dwt +perl,2013-08-24 22:59:00,
2013-08-24 16:04:00,67.6,48.3,24.84,WNW,302,9.0,-999.0,50,-99.99,,,-99.99,dwt +perl,2013-08-24 23:04:00,
2013-08-24 16:09:00,67.7,48.9,24.84,WSW,249,9.0,-999.0,51,-99.99,,,-99.99,dwt +perl,2013-08-24 23:09:00,
2013-08-24 16:14:00,66.9,48.7,24.84,West,272,5.0,-999.0,52,-99.99,,,-99.99,dwt +perl,2013-08-24 23:14:00,
2013-08-24 16:19:00,66.5,49.3,24.83,WSW,251,4.0,-999.0,54,-99.99,,,-99.99,dwt +perl,2013-08-24 23:19:00,
2013-08-24 16:24:00,67.0,49.3,24.83,WSW,239,8.0,-999.0,53,-99.99,,,-99.99,dwt +perl,2013-08-24 23:24:00,
2013-08-24 16:29:00,67.0,48.8,24.83,SW,222,13.0,-999.0,52,-99.99,,,-99.99,dwt +perl,2013-08-24 23:29:00,
2013-08-24 16:34:00,65.9,48.3,24.83,WSW,251,9.0,-999.0,53,-99.99,,,-99.99,dwt +perl,2013-08-24 23:34:00,
2013-08-24 16:39:00,65.5,48.4,24.83,West,268,6.0,-999.0,54,-99.99,,,-99.99,dwt +perl,2013-08-24 23:39:00,
2013-08-24 16:44:00,65.9,48.8,24.84,WSW,243,8.0,-999.0,54,-99.99,,,-99.99,dwt +perl,2013-08-24 23:44:00,
2013-08-24 16:49:00,65.4,47.8,24.83,SW,230,7.0,-999.0,53,-99.99,,,-99.99,dwt +perl,2013-08-24 23:49:00,
2013-08-24 16:54:00,65.4,47.8,24.84,West,270,9.0,-999.0,53,-99.99,,,-99.99,dwt +perl,2013-08-24 23:54:00,
2013-08-24 16:59:00,64.9,47.8,24.84,WNW,283,10.0,-999.0,54,-99.99,,,-99.99,dwt +perl,2013-08-24 23:59:00,
2013-08-24 17:04:00,64.8,47.8,24.83,West,266,9.0,-999.0,54,-99.99,,,-99.99,dwt +perl,2013-08-25 00:04:00,
2013-08-24 17:09:00,64.7,48.2,24.83,SW,228,15.0,-999.0,55,-99.99,,,-99.99,dwt +perl,2013-08-25 00:09:00,
2013-08-24 17:14:00,64.9,48.8,24.83,WSW,248,13.0,-999.0,56,-99.99,,,-99.99,dwt +perl,2013-08-25 00:14:00,
2013-08-24 17:19:00,64.4,48.3,24.83,West,266,8.0,-999.0,56,-99.99,,,-99.99,dwt +perl,2013-08-25 00:19:00,
2013-08-24 17:24:00,63.8,48.7,24.83,West,264,8.0,-999.0,58,-99.99,,,-99.99,dwt +perl,2013-08-25 00:24:00,
2013-08-24 17:29:00,63.9,48.4,24.83,SW,233,12.0,-999.0,57,-99.99,,,-99.99,dwt +perl,2013-08-25 00:29:00,
2013-08-24 17:34:00,63.9,48.4,24.83,WSW,240,11.0,-999.0,57,-99.99,,,-99.99,dwt +perl,2013-08-25 00:34:00,
2013-08-24 17:39:00,64.0,48.0,24.83,WSW,247,11.0,-999.0,56,-99.99,,,-99.99,dwt +perl,2013-08-25 00:39:00,
2013-08-24 17:44:00,63.6,47.6,24.83,WSW,240,12.0,-999.0,56,-99.99,,,-99.99,dwt +perl,2013-08-25 00:44:00,
2013-08-24 17:54:00,62.5,47.0,24.83,WSW,250,10.0,-999.0,57,-99.99,,,-99.99,dwt +perl,2013-08-25 00:54:00,
2013-08-24 17:59:00,62.6,46.7,24.83,WSW,246,10.0,-999.0,56,-99.99,,,-99.99,dwt +perl,2013-08-25 00:59:00,
2013-08-24 18:04:00,62.6,47.2,24.83,West,261,9.0,-999.0,57,-99.99,,,-99.99,dwt +perl,2013-08-25 01:04:00,
2013-08-24 18:09:00,62.1,46.7,24.83,WSW,242,11.0,-999.0,57,-99.99,,,-99.99,dwt +perl,2013-08-25 01:09:00,
2013-08-24 18:14:00,61.6,46.7,24.83,West,274,11.0,-999.0,58,-99.99,,,-99.99,dwt +perl,2013-08-25 01:14:00,
2013-08-24 18:19:00,61.7,47.2,24.83,SW,235,7.0,-999.0,59,-99.99,,,-99.99,dwt +perl,2013-08-25 01:19:00,
2013-08-24 18:24:00,61.5,47.0,24.83,West,266,7.0,-999.0,59,-99.99,,,-99.99,dwt +perl,2013-08-25 01:24:00,
2013-08-24 18:29:00,61.5,47.5,24.83,WSW,252,7.0,-999.0,60,-99.99,,,-99.99,dwt +perl,2013-08-25 01:29:00,
2013-08-24 18:34:00,61.1,48.0,24.83,WSW,249,7.0,-999.0,62,-99.99,,,-99.99,dwt +perl,2013-08-25 01:34:00,
2013-08-24 18:39:00,60.8,48.1,24.83,WSW,255,7.0,-999.0,63,-99.99,,,-99.99,dwt +perl,2013-08-25 01:39:00,
2013-08-24 18:44:00,60.4,48.6,24.83,WSW,251,12.0,-999.0,65,-99.99,,,-99.99,dwt +perl,2013-08-25 01:44:00,
2013-08-24 18:49:00,59.5,48.5,24.83,WSW,248,10.0,-999.0,67,-99.99,,,-99.99,dwt +perl,2013-08-25 01:49:00,
2013-08-24 18:54:00,58.9,48.7,24.83,SW,231,13.0,-999.0,69,-99.99,,,-99.99,dwt +perl,2013-08-25 01:54:00,
2013-08-24 18:59:00,58.6,48.8,24.83,SW,235,12.0,-999.0,70,-99.99,,,-99.99,dwt +perl,2013-08-25 01:59:00,
2013-08-24 19:04:00,58.4,49.0,24.82,WSW,241,15.0,-999.0,71,-99.99,,,-99.99,dwt +perl,2013-08-25 02:04:00,
2013-08-24 19:09:00,57.8,48.8,24.82,WSW,240,16.0,-999.0,72,-99.99,,,-99.99,dwt +perl,2013-08-25 02:09:00,
2013-08-24 19:14:00,57.2,49.0,24.82,WSW,244,12.0,-999.0,74,-99.99,,,-99.99,dwt +perl,2013-08-25 02:14:00,
2013-08-24 19:19:00,57.1,48.5,24.82,WSW,242,11.0,-999.0,73,-99.99,,,-99.99,dwt +perl,2013-08-25 02:19:00,
2013-08-24 19:24:00,57.5,46.2,24.82,WSW,237,16.0,-999.0,66,-99.99,,,-99.99,dwt +perl,2013-08-25 02:24:00,
2013-08-24 19:29:00,57.7,47.2,24.82,West,270,14.0,-999.0,68,-99.99,,,-99.99,dwt +perl,2013-08-25 02:29:00,
2013-08-24 19:34:00,57.6,45.9,24.82,WSW,245,12.0,-999.0,65,-99.99,,,-99.99,dwt +perl,2013-08-25 02:34:00,
2013-08-24 19:39:00,57.8,45.3,24.82,West,274,12.0,-999.0,63,-99.99,,,-99.99,dwt +perl,2013-08-25 02:39:00,
2013-08-24 19:44:00,57.7,45.2,24.82,WSW,241,11.0,-999.0,63,-99.99,,,-99.99,dwt +perl,2013-08-25 02:44:00,
2013-08-24 19:49:00,57.2,45.5,24.82,West,274,13.0,-999.0,65,-99.99,,,-99.99,dwt +perl,2013-08-25 02:49:00,
2013-08-24 19:54:00,57.1,45.4,24.82,West,262,11.0,-999.0,65,-99.99,,,-99.99,dwt +perl,2013-08-25 02:54:00,
2013-08-24 19:59:00,56.6,46.2,24.83,WSW,253,13.0,-999.0,68,-99.99,,,-99.99,dwt +perl,2013-08-25 02:59:00,
2013-08-24 20:04:00,56.2,46.5,24.83,West,259,14.0,-999.0,70,-99.99,,,-99.99,dwt +perl,2013-08-25 03:04:00,
2013-08-24 20:09:00,56.0,46.0,24.83,West,262,12.0,-999.0,69,-99.99,,,-99.99,dwt +perl,2013-08-25 03:09:00,
2013-08-24 20:14:00,56.1,45.7,24.83,West,259,10.0,-999.0,68,-99.99,,,-99.99,dwt +perl,2013-08-25 03:14:00,
2013-08-24 20:19:00,55.4,46.2,24.83,WSW,246,12.0,-999.0,71,-99.99,,,-99.99,dwt +perl,2013-08-25 03:19:00,
2013-08-24 20:24:00,55.5,46.2,24.84,West,264,11.0,-999.0,71,-99.99,,,-99.99,dwt +perl,2013-08-25 03:24:00,
2013-08-24 20:29:00,55.7,45.7,24.84,West,262,12.0,-999.0,69,-99.99,,,-99.99,dwt +perl,2013-08-25 03:29:00,
2013-08-24 20:34:00,55.7,46.1,24.84,West,269,15.0,-999.0,70,-99.99,,,-99.99,dwt +perl,2013-08-25 03:34:00,
2013-08-24 20:39:00,55.9,45.9,24.84,West,275,16.0,-999.0,69,-99.99,,,-99.99,dwt +perl,2013-08-25 03:39:00,
2013-08-24 20:44:00,56.0,46.0,24.84,WSW,253,13.0,-999.0,69,-99.99,,,-99.99,dwt +perl,2013-08-25 03:44:00,
2013-08-24 20:49:00,56.5,46.5,24.84,West,277,16.0,-999.0,69,-99.99,,,-99.99,dwt +perl,2013-08-25 03:49:00,
2013-08-24 20:54:00,57.0,45.8,24.85,West,269,13.0,-999.0,66,-99.99,,,-99.99,dwt +perl,2013-08-25 03:54:00,
2013-08-24 20:59:00,57.7,44.3,24.85,West,276,16.0,-999.0,61,-99.99,,,-99.99,dwt +perl,2013-08-25 03:59:00,
2013-08-24 21:04:00,57.6,43.4,24.85,West,280,15.0,-999.0,59,-99.99,,,-99.99,dwt +perl,2013-08-25 04:04:00,
2013-08-24 21:09:00,58.6,41.0,24.85,West,276,13.0,-999.0,52,-99.99,,,-99.99,dwt +perl,2013-08-25 04:09:00,
2013-08-24 21:14:00,59.3,38.5,24.85,WSW,253,7.0,-999.0,46,-99.99,,,-99.99,dwt +perl,2013-08-25 04:14:00,
2013-08-24 21:19:00,60.0,38.6,24.85,West,265,10.0,-999.0,45,-99.99,,,-99.99,dwt +perl,2013-08-25 04:19:00,
2013-08-24 21:24:00,60.3,37.7,24.85,West,271,6.0,-999.0,43,-99.99,,,-99.99,dwt +perl,2013-08-25 04:24:00,
2013-08-24 21:29:00,61.1,36.0,24.85,WSW,245,7.0,-999.0,39,-99.99,,,-99.99,dwt +perl,2013-08-25 04:29:00,
2013-08-24 21:34:00,61.7,36.5,24.86,West,274,5.0,-999.0,39,-99.99,,,-99.99,dwt +perl,2013-08-25 04:34:00,
2013-08-24 21:39:00,61.3,36.1,24.86,West,274,3.0,-999.0,39,-99.99,,,-99.99,dwt +perl,2013-08-25 04:39:00,
2013-08-24 21:44:00,61.4,35.6,24.86,West,274,2.0,-999.0,38,-99.99,,,-99.99,dwt +perl,2013-08-25 04:44:00,
2013-08-24 21:49:00,61.6,35.7,24.86,WNW,286,4.0,-999.0,38,-99.99,,,-99.99,dwt +perl,2013-08-25 04:49:00,
2013-08-24 21:54:00,61.7,35.8,24.86,WNW,287,2.0,-999.0,38,-99.99,,,-99.99,dwt +perl,2013-08-25 04:54:00,
2013-08-24 21:59:00,61.0,37.7,24.87,WNW,293,4.0,-999.0,42,-99.99,,,-99.99,dwt +perl,2013-08-25 04:59:00,
2013-08-24 22:04:00,60.4,38.4,24.87,NW,311,4.0,-999.0,44,-99.99,,,-99.99,dwt +perl,2013-08-25 05:04:00,
2013-08-24 22:09:00,60.5,37.3,24.87,NW,311,3.0,-999.0,42,-99.99,,,-99.99,dwt +perl,2013-08-25 05:09:00,
2013-08-24 22:14:00,60.7,38.1,24.87,NW,311,1.0,-999.0,43,-99.99,,,-99.99,dwt +perl,2013-08-25 05:14:00,
2013-08-24 22:19:00,60.5,37.3,24.87,NW,311,0.0,-999.0,42,-99.99,,,-99.99,dwt +perl,2013-08-25 05:19:00,
2013-08-24 22:24:00,60.7,37.5,24.88,NW,311,1.0,-999.0,42,-99.99,,,-99.99,dwt +perl,2013-08-25 05:24:00,
2013-08-24 22:29:00,61.3,35.5,24.88,NW,311,0.0,-999.0,38,-99.99,,,-99.99,dwt +perl,2013-08-25 05:29:00,
2013-08-24 22:34:00,61.6,35.1,24.88,NW,311,0.0,-999.0,37,-99.99,,,-99.99,dwt +perl,2013-08-25 05:34:00,
2013-08-24 22:39:00,61.9,33.9,24.88,NW,311,0.0,-999.0,35,-99.99,,,-99.99,dwt +perl,2013-08-25 05:39:00,
2013-08-24 22:44:00,62.0,34.0,24.88,NW,311,0.0,-999.0,35,-99.99,,,-99.99,dwt +perl,2013-08-25 05:44:00,
2013-08-24 22:49:00,61.9,33.9,24.88,NW,311,0.0,-999.0,35,-99.99,,,-99.99,dwt +perl,2013-08-25 05:49:00,
2013-08-24 22:54:00,62.0,34.7,24.88,NW,311,2.0,-999.0,36,-99.99,,,-99.99,dwt +perl,2013-08-25 05:54:00,
2013-08-24 22:59:00,61.2,36.0,24.88,WNW,286,5.0,-999.0,39,-99.99,,,-99.99,dwt +perl,2013-08-25 05:59:00,
2013-08-24 23:04:00,59.8,35.4,24.88,WNW,286,2.0,-999.0,40,-99.99,,,-99.99,dwt +perl,2013-08-25 06:04:00,
2013-08-24 23:09:00,60.8,34.4,24.88,WNW,286,3.0,-999.0,37,-99.99,,,-99.99,dwt +perl,2013-08-25 06:09:00,
2013-08-24 23:14:00,61.5,35.7,24.88,WNW,286,3.0,-999.0,38,-99.99,,,-99.99,dwt +perl,2013-08-25 06:14:00,
2013-08-24 23:19:00,61.2,36.0,24.88,WNW,286,1.0,-999.0,39,-99.99,,,-99.99,dwt +perl,2013-08-25 06:19:00,
2013-08-24 23:24:00,61.3,35.5,24.88,WNW,286,4.0,-999.0,38,-99.99,,,-99.99,dwt +perl,2013-08-25 06:24:00,
2013-08-24 23:29:00,61.6,35.7,24.88,West,271,3.0,-999.0,38,-99.99,,,-99.99,dwt +perl,2013-08-25 06:29:00,
2013-08-24 23:34:00,61.9,35.3,24.88,West,266,6.0,-999.0,37,-99.99,,,-99.99,dwt +perl,2013-08-25 06:34:00,
2013-08-24 23:39:00,62.0,34.7,24.88,WSW,239,6.0,-999.0,36,-99.99,,,-99.99,dwt +perl,2013-08-25 06:39:00,
2013-08-24 23:44:00,62.2,35.6,24.88,WSW,238,8.0,-999.0,37,-99.99,,,-99.99,dwt +perl,2013-08-25 06:44:00,
2013-08-24 23:49:00,62.1,35.5,24.88,SW,222,6.0,-999.0,37,-99.99,,,-99.99,dwt +perl,2013-08-25 06:49:00,
2013-08-24 23:54:00,61.9,36.0,24.88,SW,221,8.0,-999.0,38,-99.99,,,-99.99,dwt +perl,2013-08-25 06:54:00,
2013-08-24 23:59:00,61.9,36.7,24.88,SW,218,11.0,-999.0,39,-99.99,,,-99.99,dwt +perl,2013-08-25 06:59:00,